sensor_id;sensor_type;location;lat;lon;timestamp;P1;durP1;ratioP1;P2;durP2;ratioP2
71484;SDS011;59300;52.074;4.758;2022-07-23T00:02:22;9.07;;;5.95;;
71484;SDS011;59300;52.074;4.758;2022-07-23T00:05:41;8.00;;;5.63;;
71484;SDS011;59300;52.074;4.758;2022-07-23T00:09:00;11.73;;;6.63;;
71484;SDS011;59300;52.074;4.758;2022-07-23T00:12:19;10.80;;;6.32;;
71484;SDS011;59300;52.074;4.758;2022-07-23T00:15:38;9.07;;;6.18;;
71484;SDS011;59300;52.074;4.758;2022-07-23T00:18:57;13.73;;;6.18;;
71484;SDS011;59300;52.074;4.758;2022-07-23T00:22:16;12.88;;;6.85;;
71484;SDS011;59300;52.074;4.758;2022-07-23T00:25:35;10.52;;;7.05;;
71484;SDS011;59300;52.074;4.758;2022-07-23T00:28:54;8.95;;;6.85;;
71484;SDS011;59300;52.074;4.758;2022-07-23T00:32:14;10.98;;;7.07;;
71484;SDS011;59300;52.074;4.758;2022-07-23T00:35:34;12.25;;;6.80;;
71484;SDS011;59300;52.074;4.758;2022-07-23T00:38:55;8.43;;;6.70;;
71484;SDS011;59300;52.074;4.758;2022-07-23T00:42:14;13.23;;;6.97;;
71484;SDS011;59300;52.074;4.758;2022-07-23T00:45:33;10.32;;;6.13;;
71484;SDS011;59300;52.074;4.758;2022-07-23T00:48:53;9.35;;;6.38;;
71484;SDS011;59300;52.074;4.758;2022-07-23T00:52:12;11.35;;;6.47;;
71484;SDS011;59300;52.074;4.758;2022-07-23T00:55:31;12.73;;;7.50;;
71484;SDS011;59300;52.074;4.758;2022-07-23T00:58:51;9.73;;;7.35;;
71484;SDS011;59300;52.074;4.758;2022-07-23T01:02:09;14.70;;;6.82;;
71484;SDS011;59300;52.074;4.758;2022-07-23T01:05:29;11.77;;;7.47;;
71484;SDS011;59300;52.074;4.758;2022-07-23T01:08:48;11.73;;;7.47;;
71484;SDS011;59300;52.074;4.758;2022-07-23T01:12:07;10.68;;;7.88;;
71484;SDS011;59300;52.074;4.758;2022-07-23T01:15:27;12.60;;;7.25;;
71484;SDS011;59300;52.074;4.758;2022-07-23T01:18:47;12.82;;;7.85;;
71484;SDS011;59300;52.074;4.758;2022-07-23T01:22:06;11.02;;;6.93;;
71484;SDS011;59300;52.074;4.758;2022-07-23T01:25:25;10.55;;;7.03;;
71484;SDS011;59300;52.074;4.758;2022-07-23T01:28:50;11.07;;;7.03;;
71484;SDS011;59300;52.074;4.758;2022-07-23T01:32:09;11.85;;;7.38;;
71484;SDS011;59300;52.074;4.758;2022-07-23T01:35:29;12.07;;;8.07;;
71484;SDS011;59300;52.074;4.758;2022-07-23T01:38:52;11.32;;;7.70;;
71484;SDS011;59300;52.074;4.758;2022-07-23T01:42:12;13.45;;;7.50;;
71484;SDS011;59300;52.074;4.758;2022-07-23T01:45:31;10.13;;;7.82;;
71484;SDS011;59300;52.074;4.758;2022-07-23T01:48:50;13.98;;;7.97;;
71484;SDS011;59300;52.074;4.758;2022-07-23T01:52:23;10.77;;;7.20;;
71484;SDS011;59300;52.074;4.758;2022-07-23T01:55:43;12.85;;;7.43;;
71484;SDS011;59300;52.074;4.758;2022-07-23T01:59:03;13.20;;;7.97;;
71484;SDS011;59300;52.074;4.758;2022-07-23T02:02:22;12.57;;;7.80;;
71484;SDS011;59300;52.074;4.758;2022-07-23T02:05:41;14.20;;;7.65;;
71484;SDS011;59300;52.074;4.758;2022-07-23T02:09:00;12.40;;;7.30;;
71484;SDS011;59300;52.074;4.758;2022-07-23T02:12:18;10.93;;;7.10;;
71484;SDS011;59300;52.074;4.758;2022-07-23T02:15:37;11.93;;;7.50;;
71484;SDS011;59300;52.074;4.758;2022-07-23T02:18:56;9.38;;;7.45;;
71484;SDS011;59300;52.074;4.758;2022-07-23T02:22:15;10.88;;;7.78;;
71484;SDS011;59300;52.074;4.758;2022-07-23T02:25:34;12.30;;;7.40;;
71484;SDS011;59300;52.074;4.758;2022-07-23T02:28:54;11.88;;;7.25;;
71484;SDS011;59300;52.074;4.758;2022-07-23T02:32:14;12.82;;;8.15;;
71484;SDS011;59300;52.074;4.758;2022-07-23T02:35:33;16.77;;;8.40;;
71484;SDS011;59300;52.074;4.758;2022-07-23T02:38:54;12.95;;;7.82;;
71484;SDS011;59300;52.074;4.758;2022-07-23T02:42:14;13.38;;;7.70;;
71484;SDS011;59300;52.074;4.758;2022-07-23T02:45:34;14.48;;;8.50;;
71484;SDS011;59300;52.074;4.758;2022-07-23T02:48:53;13.48;;;7.90;;
71484;SDS011;59300;52.074;4.758;2022-07-23T02:52:12;10.68;;;7.05;;
71484;SDS011;59300;52.074;4.758;2022-07-23T02:55:31;12.43;;;6.65;;
71484;SDS011;59300;52.074;4.758;2022-07-23T02:58:53;13.38;;;7.28;;
71484;SDS011;59300;52.074;4.758;2022-07-23T03:02:14;14.75;;;6.28;;
71484;SDS011;59300;52.074;4.758;2022-07-23T03:05:33;9.63;;;6.45;;
71484;SDS011;59300;52.074;4.758;2022-07-23T03:08:52;12.40;;;6.57;;
71484;SDS011;59300;52.074;4.758;2022-07-23T03:12:11;9.93;;;6.85;;
71484;SDS011;59300;52.074;4.758;2022-07-23T03:15:30;12.85;;;7.25;;
71484;SDS011;59300;52.074;4.758;2022-07-23T03:18:49;11.85;;;7.82;;
71484;SDS011;59300;52.074;4.758;2022-07-23T03:22:08;11.80;;;8.02;;
71484;SDS011;59300;52.074;4.758;2022-07-23T03:25:26;15.20;;;8.55;;
71484;SDS011;59300;52.074;4.758;2022-07-23T03:28:45;15.52;;;8.18;;
71484;SDS011;59300;52.074;4.758;2022-07-23T03:32:04;9.98;;;7.97;;
71484;SDS011;59300;52.074;4.758;2022-07-23T03:35:24;12.55;;;7.78;;
71484;SDS011;59300;52.074;4.758;2022-07-23T03:38:59;10.25;;;7.30;;
71484;SDS011;59300;52.074;4.758;2022-07-23T03:42:18;14.23;;;7.43;;
71484;SDS011;59300;52.074;4.758;2022-07-23T03:45:39;13.00;;;7.70;;
71484;SDS011;59300;52.074;4.758;2022-07-23T03:48:57;13.05;;;7.65;;
71484;SDS011;59300;52.074;4.758;2022-07-23T03:52:16;11.07;;;7.65;;
71484;SDS011;59300;52.074;4.758;2022-07-23T03:55:36;13.23;;;7.55;;
71484;SDS011;59300;52.074;4.758;2022-07-23T03:58:55;11.52;;;7.75;;
71484;SDS011;59300;52.074;4.758;2022-07-23T04:02:15;15.63;;;8.18;;
71484;SDS011;59300;52.074;4.758;2022-07-23T04:05:34;12.50;;;7.53;;
71484;SDS011;59300;52.074;4.758;2022-07-23T04:08:58;12.60;;;7.65;;
71484;SDS011;59300;52.074;4.758;2022-07-23T04:12:17;12.63;;;8.18;;
71484;SDS011;59300;52.074;4.758;2022-07-23T04:15:36;16.75;;;9.18;;
71484;SDS011;59300;52.074;4.758;2022-07-23T04:18:57;14.25;;;8.73;;
71484;SDS011;59300;52.074;4.758;2022-07-23T04:22:17;12.98;;;8.50;;
71484;SDS011;59300;52.074;4.758;2022-07-23T04:25:36;14.88;;;7.65;;
71484;SDS011;59300;52.074;4.758;2022-07-23T04:28:55;10.73;;;7.68;;
71484;SDS011;59300;52.074;4.758;2022-07-23T04:32:13;13.20;;;6.85;;
71484;SDS011;59300;52.074;4.758;2022-07-23T04:35:33;10.18;;;7.35;;
71484;SDS011;59300;52.074;4.758;2022-07-23T04:39:03;11.32;;;7.43;;
71484;SDS011;59300;52.074;4.758;2022-07-23T04:42:23;10.45;;;7.00;;
71484;SDS011;59300;52.074;4.758;2022-07-23T04:45:43;12.98;;;7.25;;
71484;SDS011;59300;52.074;4.758;2022-07-23T04:49:02;14.88;;;8.15;;
71484;SDS011;59300;52.074;4.758;2022-07-23T04:52:21;12.55;;;7.10;;
71484;SDS011;59300;52.074;4.758;2022-07-23T04:55:40;11.48;;;7.45;;
71484;SDS011;59300;52.074;4.758;2022-07-23T04:58:59;10.63;;;6.88;;
71484;SDS011;59300;52.074;4.758;2022-07-23T05:02:18;10.98;;;6.55;;
71484;SDS011;59300;52.074;4.758;2022-07-23T05:05:37;11.88;;;7.10;;
71484;SDS011;59300;52.074;4.758;2022-07-23T05:09:04;8.02;;;6.72;;
71484;SDS011;59300;52.074;4.758;2022-07-23T05:12:23;9.05;;;6.55;;
71484;SDS011;59300;52.074;4.758;2022-07-23T05:15:43;12.82;;;6.45;;
71484;SDS011;59300;52.074;4.758;2022-07-23T05:19:02;10.95;;;6.43;;
71484;SDS011;59300;52.074;4.758;2022-07-23T05:22:24;8.52;;;6.00;;
71484;SDS011;59300;52.074;4.758;2022-07-23T05:25:43;6.70;;;5.20;;
71484;SDS011;59300;52.074;4.758;2022-07-23T05:29:02;6.18;;;5.13;;
71484;SDS011;59300;52.074;4.758;2022-07-23T05:32:22;7.50;;;5.30;;
71484;SDS011;59300;52.074;4.758;2022-07-23T05:35:48;8.35;;;4.80;;
71484;SDS011;59300;52.074;4.758;2022-07-23T05:42:52;7.60;;;4.60;;
71484;SDS011;59300;52.074;4.758;2022-07-23T05:46:11;7.95;;;4.60;;
71484;SDS011;59300;52.074;4.758;2022-07-23T05:49:33;4.07;;;3.30;;
71484;SDS011;59300;52.074;4.758;2022-07-23T05:53:12;3.13;;;2.28;;
71484;SDS011;59300;52.074;4.758;2022-07-23T05:56:46;5.07;;;2.22;;
71484;SDS011;59300;52.074;4.758;2022-07-23T06:00:06;4.03;;;1.90;;
71484;SDS011;59300;52.074;4.758;2022-07-23T06:03:32;5.45;;;2.28;;
71484;SDS011;59300;52.074;4.758;2022-07-23T06:06:51;2.17;;;1.75;;
71484;SDS011;59300;52.074;4.758;2022-07-23T06:10:11;7.32;;;2.13;;
71484;SDS011;59300;52.074;4.758;2022-07-23T06:13:30;2.97;;;1.98;;
71484;SDS011;59300;52.074;4.758;2022-07-23T06:16:49;3.10;;;2.08;;
71484;SDS011;59300;52.074;4.758;2022-07-23T06:20:08;3.00;;;1.90;;
71484;SDS011;59300;52.074;4.758;2022-07-23T06:23:30;3.03;;;1.80;;
71484;SDS011;59300;52.074;4.758;2022-07-23T06:26:49;6.35;;;2.00;;
71484;SDS011;59300;52.074;4.758;2022-07-23T06:30:08;2.75;;;1.55;;
71484;SDS011;59300;52.074;4.758;2022-07-23T06:33:30;2.35;;;1.65;;
71484;SDS011;59300;52.074;4.758;2022-07-23T06:36:49;5.00;;;2.00;;
71484;SDS011;59300;52.074;4.758;2022-07-23T06:40:08;2.00;;;1.60;;
71484;SDS011;59300;52.074;4.758;2022-07-23T06:43:30;4.65;;;1.90;;
71484;SDS011;59300;52.074;4.758;2022-07-23T06:46:50;2.58;;;1.85;;
71484;SDS011;59300;52.074;4.758;2022-07-23T06:50:09;2.75;;;1.60;;
71484;SDS011;59300;52.074;4.758;2022-07-23T06:53:28;4.53;;;1.45;;
71484;SDS011;59300;52.074;4.758;2022-07-23T06:56:47;2.72;;;1.65;;
71484;SDS011;59300;52.074;4.758;2022-07-23T07:00:06;4.70;;;1.65;;
71484;SDS011;59300;52.074;4.758;2022-07-23T07:03:25;3.28;;;1.75;;
71484;SDS011;59300;52.074;4.758;2022-07-23T07:06:44;2.92;;;1.40;;
71484;SDS011;59300;52.074;4.758;2022-07-23T07:10:04;3.17;;;1.77;;
71484;SDS011;59300;52.074;4.758;2022-07-23T07:13:23;6.22;;;2.35;;
71484;SDS011;59300;52.074;4.758;2022-07-23T07:16:42;4.60;;;2.30;;
71484;SDS011;59300;52.074;4.758;2022-07-23T07:20:01;3.78;;;1.73;;
71484;SDS011;59300;52.074;4.758;2022-07-23T07:23:20;3.70;;;1.70;;
71484;SDS011;59300;52.074;4.758;2022-07-23T07:26:39;2.90;;;1.60;;
71484;SDS011;59300;52.074;4.758;2022-07-23T07:29:58;25.65;;;2.40;;
71484;SDS011;59300;52.074;4.758;2022-07-23T07:33:17;3.15;;;1.55;;
71484;SDS011;59300;52.074;4.758;2022-07-23T07:36:36;2.42;;;1.30;;
71484;SDS011;59300;52.074;4.758;2022-07-23T07:39:55;3.28;;;1.35;;
71484;SDS011;59300;52.074;4.758;2022-07-23T07:43:14;1.52;;;1.20;;
71484;SDS011;59300;52.074;4.758;2022-07-23T07:46:32;4.90;;;1.58;;
71484;SDS011;59300;52.074;4.758;2022-07-23T07:49:51;4.80;;;1.40;;
71484;SDS011;59300;52.074;4.758;2022-07-23T07:53:10;1.83;;;1.15;;
71484;SDS011;59300;52.074;4.758;2022-07-23T07:56:29;1.88;;;1.10;;
71484;SDS011;59300;52.074;4.758;2022-07-23T07:59:48;3.38;;;1.30;;
71484;SDS011;59300;52.074;4.758;2022-07-23T08:03:07;2.33;;;1.00;;
71484;SDS011;59300;52.074;4.758;2022-07-23T08:06:26;3.08;;;1.23;;
71484;SDS011;59300;52.074;4.758;2022-07-23T08:09:45;3.22;;;1.05;;
71484;SDS011;59300;52.074;4.758;2022-07-23T08:13:04;3.00;;;1.40;;
71484;SDS011;59300;52.074;4.758;2022-07-23T08:16:23;2.45;;;1.20;;
71484;SDS011;59300;52.074;4.758;2022-07-23T08:19:42;5.28;;;1.20;;
71484;SDS011;59300;52.074;4.758;2022-07-23T08:23:05;3.67;;;1.30;;
71484;SDS011;59300;52.074;4.758;2022-07-23T08:26:25;3.30;;;1.30;;
71484;SDS011;59300;52.074;4.758;2022-07-23T08:29:44;8.10;;;1.40;;
71484;SDS011;59300;52.074;4.758;2022-07-23T08:33:07;3.17;;;1.10;;
71484;SDS011;59300;52.074;4.758;2022-07-23T08:36:28;2.30;;;1.30;;
71484;SDS011;59300;52.074;4.758;2022-07-23T08:39:47;3.30;;;1.30;;
71484;SDS011;59300;52.074;4.758;2022-07-23T08:43:07;3.05;;;1.33;;
71484;SDS011;59300;52.074;4.758;2022-07-23T08:46:27;2.85;;;1.58;;
71484;SDS011;59300;52.074;4.758;2022-07-23T08:49:46;3.22;;;1.35;;
71484;SDS011;59300;52.074;4.758;2022-07-23T08:53:06;3.95;;;1.35;;
71484;SDS011;59300;52.074;4.758;2022-07-23T08:56:25;4.05;;;1.55;;
71484;SDS011;59300;52.074;4.758;2022-07-23T08:59:44;4.15;;;1.42;;
71484;SDS011;59300;52.074;4.758;2022-07-23T09:03:03;7.45;;;1.50;;
71484;SDS011;59300;52.074;4.758;2022-07-23T09:06:22;2.50;;;1.45;;
71484;SDS011;59300;52.074;4.758;2022-07-23T09:09:41;3.47;;;1.27;;
71484;SDS011;59300;52.074;4.758;2022-07-23T09:13:00;4.07;;;1.80;;
71484;SDS011;59300;52.074;4.758;2022-07-23T09:16:20;2.75;;;1.70;;
71484;SDS011;59300;52.074;4.758;2022-07-23T09:19:44;3.63;;;1.55;;
71484;SDS011;59300;52.074;4.758;2022-07-23T09:23:03;5.60;;;1.77;;
71484;SDS011;59300;52.074;4.758;2022-07-23T09:26:27;3.67;;;1.55;;
71484;SDS011;59300;52.074;4.758;2022-07-23T09:29:55;2.13;;;1.38;;
71484;SDS011;59300;52.074;4.758;2022-07-23T09:33:15;4.53;;;1.60;;
71484;SDS011;59300;52.074;4.758;2022-07-23T09:36:34;3.83;;;1.52;;
71484;SDS011;59300;52.074;4.758;2022-07-23T09:39:53;2.72;;;1.40;;
71484;SDS011;59300;52.074;4.758;2022-07-23T09:43:27;5.55;;;1.60;;
71484;SDS011;59300;52.074;4.758;2022-07-23T09:46:47;2.60;;;1.30;;
71484;SDS011;59300;52.074;4.758;2022-07-23T09:50:10;3.72;;;1.90;;
71484;SDS011;59300;52.074;4.758;2022-07-23T09:53:29;5.13;;;1.70;;
71484;SDS011;59300;52.074;4.758;2022-07-23T09:56:48;3.90;;;1.70;;
71484;SDS011;59300;52.074;4.758;2022-07-23T10:00:08;3.33;;;1.80;;
71484;SDS011;59300;52.074;4.758;2022-07-23T10:03:28;3.20;;;1.60;;
71484;SDS011;59300;52.074;4.758;2022-07-23T10:07:24;3.17;;;1.70;;
71484;SDS011;59300;52.074;4.758;2022-07-23T10:11:03;5.28;;;1.98;;
71484;SDS011;59300;52.074;4.758;2022-07-23T10:14:28;5.03;;;1.88;;
71484;SDS011;59300;52.074;4.758;2022-07-23T10:17:50;3.05;;;1.73;;
71484;SDS011;59300;52.074;4.758;2022-07-23T10:21:09;2.78;;;1.95;;
71484;SDS011;59300;52.074;4.758;2022-07-23T10:28:30;4.53;;;1.98;;
71484;SDS011;59300;52.074;4.758;2022-07-23T10:32:08;4.07;;;1.80;;
71484;SDS011;59300;52.074;4.758;2022-07-23T10:35:44;5.15;;;2.22;;
71484;SDS011;59300;52.074;4.758;2022-07-23T10:39:26;4.00;;;1.88;;
71484;SDS011;59300;52.074;4.758;2022-07-23T10:42:49;3.00;;;1.70;;
71484;SDS011;59300;52.074;4.758;2022-07-23T10:46:22;2.50;;;1.70;;
71484;SDS011;59300;52.074;4.758;2022-07-23T10:49:42;4.68;;;1.70;;
71484;SDS011;59300;52.074;4.758;2022-07-23T11:00:11;2.90;;;2.13;;
71484;SDS011;59300;52.074;4.758;2022-07-23T11:03:32;3.97;;;2.30;;
71484;SDS011;59300;52.074;4.758;2022-07-23T11:10:23;6.45;;;2.10;;
71484;SDS011;59300;52.074;4.758;2022-07-23T11:13:53;5.40;;;2.42;;
71484;SDS011;59300;52.074;4.758;2022-07-23T11:17:19;4.97;;;2.35;;
71484;SDS011;59300;52.074;4.758;2022-07-23T11:20:38;3.83;;;1.88;;
71484;SDS011;59300;52.074;4.758;2022-07-23T11:27:36;3.95;;;2.17;;
71484;SDS011;59300;52.074;4.758;2022-07-23T11:30:55;4.60;;;1.90;;
71484;SDS011;59300;52.074;4.758;2022-07-23T11:34:28;4.40;;;2.17;;
71484;SDS011;59300;52.074;4.758;2022-07-23T11:38:13;3.85;;;1.77;;
71484;SDS011;59300;52.074;4.758;2022-07-23T11:41:43;5.45;;;1.80;;
71484;SDS011;59300;52.074;4.758;2022-07-23T11:45:03;4.25;;;1.70;;
71484;SDS011;59300;52.074;4.758;2022-07-23T11:48:24;3.00;;;1.60;;
71484;SDS011;59300;52.074;4.758;2022-07-23T11:51:45;2.00;;;1.42;;
71484;SDS011;59300;52.074;4.758;2022-07-23T11:55:05;3.13;;;1.75;;
71484;SDS011;59300;52.074;4.758;2022-07-23T11:58:26;4.97;;;1.83;;
71484;SDS011;59300;52.074;4.758;2022-07-23T12:02:01;2.90;;;1.70;;
71484;SDS011;59300;52.074;4.758;2022-07-23T12:05:22;2.88;;;1.65;;
71484;SDS011;59300;52.074;4.758;2022-07-23T12:08:43;3.63;;;1.70;;
71484;SDS011;59300;52.074;4.758;2022-07-23T12:12:02;3.38;;;1.55;;
71484;SDS011;59300;52.074;4.758;2022-07-23T12:15:23;3.80;;;1.73;;
71484;SDS011;59300;52.074;4.758;2022-07-23T12:18:43;6.07;;;1.75;;
71484;SDS011;59300;52.074;4.758;2022-07-23T12:22:03;2.55;;;1.70;;
71484;SDS011;59300;52.074;4.758;2022-07-23T12:25:23;4.57;;;2.10;;
71484;SDS011;59300;52.074;4.758;2022-07-23T12:28:44;3.33;;;1.75;;
71484;SDS011;59300;52.074;4.758;2022-07-23T12:32:45;5.18;;;1.58;;
71484;SDS011;59300;52.074;4.758;2022-07-23T12:36:02;3.55;;;2.10;;
71484;SDS011;59300;52.074;4.758;2022-07-23T12:39:30;4.65;;;1.75;;
71484;SDS011;59300;52.074;4.758;2022-07-23T12:42:51;2.78;;;1.92;;
71484;SDS011;59300;52.074;4.758;2022-07-23T12:46:20;3.95;;;2.17;;
71484;SDS011;59300;52.074;4.758;2022-07-23T12:49:40;3.28;;;2.20;;
71484;SDS011;59300;52.074;4.758;2022-07-23T12:53:03;5.05;;;2.10;;
71484;SDS011;59300;52.074;4.758;2022-07-23T12:56:30;5.32;;;2.70;;
71484;SDS011;59300;52.074;4.758;2022-07-23T12:59:50;5.03;;;2.10;;
71484;SDS011;59300;52.074;4.758;2022-07-23T13:03:19;3.90;;;2.10;;
71484;SDS011;59300;52.074;4.758;2022-07-23T13:06:44;3.63;;;1.98;;
71484;SDS011;59300;52.074;4.758;2022-07-23T13:10:04;3.83;;;2.00;;
71484;SDS011;59300;52.074;4.758;2022-07-23T13:13:24;4.82;;;2.10;;
71484;SDS011;59300;52.074;4.758;2022-07-23T13:16:46;2.20;;;2.00;;
71484;SDS011;59300;52.074;4.758;2022-07-23T13:20:05;4.80;;;1.88;;
71484;SDS011;59300;52.074;4.758;2022-07-23T13:23:25;5.03;;;2.22;;
71484;SDS011;59300;52.074;4.758;2022-07-23T13:26:44;3.45;;;1.90;;
71484;SDS011;59300;52.074;4.758;2022-07-23T13:30:03;3.03;;;2.10;;
71484;SDS011;59300;52.074;4.758;2022-07-23T13:33:23;2.20;;;2.00;;
71484;SDS011;59300;52.074;4.758;2022-07-23T13:36:43;4.68;;;1.90;;
71484;SDS011;59300;52.074;4.758;2022-07-23T13:40:02;2.50;;;2.30;;
71484;SDS011;59300;52.074;4.758;2022-07-23T13:43:23;6.13;;;2.13;;
71484;SDS011;59300;52.074;4.758;2022-07-23T13:46:42;3.13;;;1.60;;
71484;SDS011;59300;52.074;4.758;2022-07-23T13:50:01;4.63;;;2.00;;
71484;SDS011;59300;52.074;4.758;2022-07-23T13:53:22;5.70;;;2.25;;
71484;SDS011;59300;52.074;4.758;2022-07-23T13:56:42;4.75;;;2.33;;
71484;SDS011;59300;52.074;4.758;2022-07-23T14:00:01;2.45;;;2.10;;
71484;SDS011;59300;52.074;4.758;2022-07-23T14:03:23;3.47;;;2.03;;
71484;SDS011;59300;52.074;4.758;2022-07-23T14:06:42;5.38;;;2.30;;
71484;SDS011;59300;52.074;4.758;2022-07-23T14:10:03;4.63;;;2.63;;
71484;SDS011;59300;52.074;4.758;2022-07-23T14:13:23;2.95;;;2.40;;
71484;SDS011;59300;52.074;4.758;2022-07-23T14:16:43;3.80;;;2.40;;
71484;SDS011;59300;52.074;4.758;2022-07-23T14:20:02;3.97;;;2.55;;
71484;SDS011;59300;52.074;4.758;2022-07-23T14:23:22;4.90;;;2.95;;
71484;SDS011;59300;52.074;4.758;2022-07-23T14:26:41;3.55;;;2.78;;
71484;SDS011;59300;52.074;4.758;2022-07-23T14:30:00;3.10;;;2.58;;
71484;SDS011;59300;52.074;4.758;2022-07-23T14:33:19;4.43;;;2.72;;
71484;SDS011;59300;52.074;4.758;2022-07-23T14:36:38;2.25;;;2.03;;
71484;SDS011;59300;52.074;4.758;2022-07-23T14:39:57;4.03;;;2.20;;
71484;SDS011;59300;52.074;4.758;2022-07-23T14:43:16;4.13;;;2.33;;
71484;SDS011;59300;52.074;4.758;2022-07-23T14:46:35;4.50;;;2.50;;
71484;SDS011;59300;52.074;4.758;2022-07-23T14:49:54;6.63;;;2.30;;
71484;SDS011;59300;52.074;4.758;2022-07-23T14:53:13;5.20;;;2.67;;
71484;SDS011;59300;52.074;4.758;2022-07-23T14:56:32;3.35;;;2.33;;
71484;SDS011;59300;52.074;4.758;2022-07-23T14:59:51;4.13;;;2.20;;
71484;SDS011;59300;52.074;4.758;2022-07-23T15:03:10;3.67;;;2.60;;
71484;SDS011;59300;52.074;4.758;2022-07-23T15:06:29;4.32;;;2.63;;
71484;SDS011;59300;52.074;4.758;2022-07-23T15:09:48;5.68;;;2.78;;
71484;SDS011;59300;52.074;4.758;2022-07-23T15:13:07;4.60;;;2.50;;
71484;SDS011;59300;52.074;4.758;2022-07-23T15:16:26;4.95;;;2.50;;
71484;SDS011;59300;52.074;4.758;2022-07-23T15:19:45;6.55;;;2.90;;
71484;SDS011;59300;52.074;4.758;2022-07-23T15:23:05;8.20;;;2.47;;
71484;SDS011;59300;52.074;4.758;2022-07-23T15:26:25;3.20;;;2.50;;
71484;SDS011;59300;52.074;4.758;2022-07-23T15:29:45;5.35;;;2.40;;
71484;SDS011;59300;52.074;4.758;2022-07-23T15:33:04;3.42;;;2.13;;
71484;SDS011;59300;52.074;4.758;2022-07-23T15:36:24;4.32;;;2.10;;
71484;SDS011;59300;52.074;4.758;2022-07-23T15:39:43;4.20;;;2.40;;
71484;SDS011;59300;52.074;4.758;2022-07-23T15:43:02;4.38;;;2.47;;
71484;SDS011;59300;52.074;4.758;2022-07-23T15:46:21;3.65;;;2.65;;
71484;SDS011;59300;52.074;4.758;2022-07-23T15:49:41;2.65;;;2.42;;
71484;SDS011;59300;52.074;4.758;2022-07-23T15:53:00;4.45;;;2.58;;
71484;SDS011;59300;52.074;4.758;2022-07-23T15:56:19;4.65;;;2.75;;
71484;SDS011;59300;52.074;4.758;2022-07-23T15:59:38;3.42;;;2.67;;
71484;SDS011;59300;52.074;4.758;2022-07-23T16:02:57;3.28;;;2.45;;
71484;SDS011;59300;52.074;4.758;2022-07-23T16:06:15;4.88;;;3.08;;
71484;SDS011;59300;52.074;4.758;2022-07-23T16:09:34;5.85;;;3.03;;
71484;SDS011;59300;52.074;4.758;2022-07-23T16:12:53;6.78;;;2.80;;
71484;SDS011;59300;52.074;4.758;2022-07-23T16:16:13;4.78;;;2.80;;
71484;SDS011;59300;52.074;4.758;2022-07-23T16:19:32;6.03;;;3.13;;
71484;SDS011;59300;52.074;4.758;2022-07-23T16:22:51;3.58;;;2.80;;
71484;SDS011;59300;52.074;4.758;2022-07-23T16:26:10;4.60;;;2.67;;
71484;SDS011;59300;52.074;4.758;2022-07-23T16:29:30;4.35;;;2.83;;
71484;SDS011;59300;52.074;4.758;2022-07-23T16:32:49;6.13;;;2.67;;
71484;SDS011;59300;52.074;4.758;2022-07-23T16:36:08;8.02;;;3.05;;
71484;SDS011;59300;52.074;4.758;2022-07-23T16:39:27;4.05;;;2.70;;
71484;SDS011;59300;52.074;4.758;2022-07-23T16:42:46;4.82;;;2.70;;
71484;SDS011;59300;52.074;4.758;2022-07-23T16:46:05;7.82;;;6.65;;
71484;SDS011;59300;52.074;4.758;2022-07-23T16:49:24;10.10;;;2.80;;
71484;SDS011;59300;52.074;4.758;2022-07-23T16:52:43;3.55;;;2.50;;
71484;SDS011;59300;52.074;4.758;2022-07-23T16:56:03;5.55;;;2.90;;
71484;SDS011;59300;52.074;4.758;2022-07-23T16:59:23;6.32;;;3.05;;
71484;SDS011;59300;52.074;4.758;2022-07-23T17:02:43;5.78;;;2.80;;
71484;SDS011;59300;52.074;4.758;2022-07-23T17:06:02;4.32;;;2.67;;
71484;SDS011;59300;52.074;4.758;2022-07-23T17:09:21;7.28;;;2.88;;
71484;SDS011;59300;52.074;4.758;2022-07-23T17:12:40;6.07;;;3.00;;
71484;SDS011;59300;52.074;4.758;2022-07-23T17:15:59;7.57;;;3.30;;
71484;SDS011;59300;52.074;4.758;2022-07-23T17:19:18;3.80;;;2.78;;
71484;SDS011;59300;52.074;4.758;2022-07-23T17:22:38;7.38;;;3.47;;
71484;SDS011;59300;52.074;4.758;2022-07-23T17:25:56;4.82;;;3.13;;
71484;SDS011;59300;52.074;4.758;2022-07-23T17:29:15;9.05;;;3.95;;
71484;SDS011;59300;52.074;4.758;2022-07-23T17:32:34;4.90;;;2.97;;
71484;SDS011;59300;52.074;4.758;2022-07-23T17:35:53;5.65;;;3.30;;
71484;SDS011;59300;52.074;4.758;2022-07-23T17:39:12;5.53;;;3.13;;
71484;SDS011;59300;52.074;4.758;2022-07-23T17:42:31;7.93;;;3.80;;
71484;SDS011;59300;52.074;4.758;2022-07-23T17:45:50;6.93;;;3.80;;
71484;SDS011;59300;52.074;4.758;2022-07-23T17:49:09;4.63;;;3.17;;
71484;SDS011;59300;52.074;4.758;2022-07-23T17:52:28;5.07;;;3.22;;
71484;SDS011;59300;52.074;4.758;2022-07-23T17:55:47;4.88;;;3.55;;
71484;SDS011;59300;52.074;4.758;2022-07-23T17:59:06;8.63;;;3.10;;
71484;SDS011;59300;52.074;4.758;2022-07-23T18:02:25;6.35;;;3.78;;
71484;SDS011;59300;52.074;4.758;2022-07-23T18:05:44;8.30;;;4.03;;
71484;SDS011;59300;52.074;4.758;2022-07-23T18:09:03;7.47;;;5.00;;
71484;SDS011;59300;52.074;4.758;2022-07-23T18:12:22;9.63;;;4.95;;
71484;SDS011;59300;52.074;4.758;2022-07-23T18:15:41;7.95;;;4.78;;
71484;SDS011;59300;52.074;4.758;2022-07-23T18:19:00;6.78;;;3.97;;
71484;SDS011;59300;52.074;4.758;2022-07-23T18:22:20;6.53;;;3.53;;
71484;SDS011;59300;52.074;4.758;2022-07-23T18:25:38;4.57;;;3.38;;
71484;SDS011;59300;52.074;4.758;2022-07-23T18:28:57;8.32;;;3.60;;
71484;SDS011;59300;52.074;4.758;2022-07-23T18:32:16;6.78;;;4.78;;
71484;SDS011;59300;52.074;4.758;2022-07-23T18:35:35;8.52;;;4.78;;
71484;SDS011;59300;52.074;4.758;2022-07-23T18:38:54;8.43;;;4.28;;
71484;SDS011;59300;52.074;4.758;2022-07-23T18:42:13;8.23;;;4.47;;
71484;SDS011;59300;52.074;4.758;2022-07-23T18:45:32;9.23;;;4.50;;
71484;SDS011;59300;52.074;4.758;2022-07-23T18:48:51;10.10;;;4.85;;
71484;SDS011;59300;52.074;4.758;2022-07-23T18:52:10;9.00;;;4.20;;
71484;SDS011;59300;52.074;4.758;2022-07-23T18:55:29;4.97;;;3.88;;
71484;SDS011;59300;52.074;4.758;2022-07-23T18:58:48;9.63;;;4.00;;
71484;SDS011;59300;52.074;4.758;2022-07-23T19:02:07;8.07;;;4.38;;
71484;SDS011;59300;52.074;4.758;2022-07-23T19:05:26;6.22;;;4.75;;
71484;SDS011;59300;52.074;4.758;2022-07-23T19:08:45;8.02;;;4.70;;
71484;SDS011;59300;52.074;4.758;2022-07-23T19:12:04;8.15;;;4.63;;
71484;SDS011;59300;52.074;4.758;2022-07-23T19:15:23;6.35;;;4.35;;
71484;SDS011;59300;52.074;4.758;2022-07-23T19:18:42;9.18;;;4.90;;
71484;SDS011;59300;52.074;4.758;2022-07-23T19:22:01;5.93;;;4.28;;
71484;SDS011;59300;52.074;4.758;2022-07-23T19:25:20;7.05;;;4.68;;
71484;SDS011;59300;52.074;4.758;2022-07-23T19:28:40;8.07;;;5.18;;
71484;SDS011;59300;52.074;4.758;2022-07-23T19:31:59;8.55;;;4.85;;
71484;SDS011;59300;52.074;4.758;2022-07-23T19:35:18;10.15;;;5.60;;
71484;SDS011;59300;52.074;4.758;2022-07-23T19:38:37;10.68;;;6.03;;
71484;SDS011;59300;52.074;4.758;2022-07-23T19:41:56;8.25;;;5.25;;
71484;SDS011;59300;52.074;4.758;2022-07-23T19:45:15;12.00;;;5.30;;
71484;SDS011;59300;52.074;4.758;2022-07-23T19:48:34;8.52;;;5.65;;
71484;SDS011;59300;52.074;4.758;2022-07-23T19:51:53;8.02;;;5.13;;
71484;SDS011;59300;52.074;4.758;2022-07-23T19:55:12;6.90;;;6.20;;
71484;SDS011;59300;52.074;4.758;2022-07-23T19:58:32;10.85;;;6.00;;
71484;SDS011;59300;52.074;4.758;2022-07-23T20:01:51;9.00;;;6.25;;
71484;SDS011;59300;52.074;4.758;2022-07-23T20:05:10;8.88;;;6.97;;
71484;SDS011;59300;52.074;4.758;2022-07-23T20:08:29;7.57;;;6.28;;
71484;SDS011;59300;52.074;4.758;2022-07-23T20:11:48;8.10;;;5.38;;
71484;SDS011;59300;52.074;4.758;2022-07-23T20:15:08;9.45;;;7.38;;
71484;SDS011;59300;52.074;4.758;2022-07-23T20:18:27;8.98;;;6.13;;
71484;SDS011;59300;52.074;4.758;2022-07-23T20:21:47;8.52;;;6.32;;
71484;SDS011;59300;52.074;4.758;2022-07-23T20:25:06;7.47;;;6.28;;
71484;SDS011;59300;52.074;4.758;2022-07-23T20:28:26;9.32;;;8.35;;